createdAt,value
2018-10-18T00:02:20.305Z,101534.41
2018-10-18T00:04:48.580Z,101534.20
2018-10-18T00:07:16.753Z,101533.44
2018-10-18T00:09:44.948Z,101538.77
2018-10-18T00:12:13.131Z,101534.06
2018-10-18T00:14:41.400Z,101532.38
2018-10-18T00:17:14.990Z,101533.31
2018-10-18T00:19:43.220Z,101527.56
2018-10-18T00:22:11.362Z,101529.20
2018-10-18T00:24:39.523Z,101522.91
2018-10-18T00:27:07.696Z,101531.39
2018-10-18T00:29:35.893Z,101530.00
2018-10-18T00:32:04.366Z,101529.53
2018-10-18T00:34:32.532Z,101528.82
2018-10-18T00:37:00.680Z,101528.36
2018-10-18T00:39:28.845Z,101535.83
2018-10-18T00:41:57.016Z,101540.89
2018-10-18T00:44:25.198Z,101532.91
2018-10-18T00:46:53.371Z,101536.39
2018-10-18T00:49:21.576Z,101535.19
2018-10-18T00:51:49.724Z,101534.20
2018-10-18T00:54:17.906Z,101529.32
2018-10-18T00:56:46.064Z,101533.00
2018-10-18T00:59:14.257Z,101528.06
2018-10-18T01:01:42.452Z,101525.46
2018-10-18T01:04:10.632Z,101528.26
2018-10-18T01:06:38.808Z,101530.84
2018-10-18T01:09:08.843Z,101534.72
2018-10-18T01:11:36.956Z,101529.52
2018-10-18T01:14:05.443Z,101528.05
2018-10-18T01:16:33.604Z,101527.41
2018-10-18T01:19:01.812Z,101526.55
2018-10-18T01:21:29.959Z,101527.16
2018-10-18T01:23:59.108Z,101524.06
2018-10-18T01:26:27.344Z,101526.83
2018-10-18T01:28:55.535Z,101526.53
2018-10-18T01:31:23.689Z,101521.63
2018-10-18T01:33:51.895Z,101529.45
2018-10-18T01:36:20.140Z,101530.23
2018-10-18T01:38:48.303Z,101532.55
2018-10-18T01:41:16.451Z,101531.59
2018-10-18T01:43:44.606Z,101525.66
2018-10-18T01:46:12.797Z,101526.00
2018-10-18T01:48:40.953Z,101526.36
2018-10-18T01:51:09.125Z,101518.88
2018-10-18T01:53:37.489Z,101519.74
2018-10-18T01:56:05.744Z,101520.77
2018-10-18T01:58:34.828Z,101523.84
2018-10-18T02:01:02.963Z,101519.91
2018-10-18T02:03:31.181Z,101517.55
2018-10-18T02:05:59.421Z,101515.31
2018-10-18T02:08:27.597Z,101514.27
2018-10-18T02:10:55.815Z,101518.21
2018-10-18T02:13:24.011Z,101516.94
2018-10-18T02:15:52.390Z,101515.89
2018-10-18T02:18:20.707Z,101514.33
2018-10-18T02:20:48.917Z,101511.04
2018-10-18T02:23:17.114Z,101512.98
2018-10-18T02:25:45.305Z,101508.21
2018-10-18T02:28:13.497Z,101509.92
2018-10-18T02:30:41.675Z,101503.38
2018-10-18T02:33:09.847Z,101506.03
2018-10-18T02:35:38.015Z,101506.69
2018-10-18T02:38:06.219Z,101499.16
2018-10-18T02:40:34.421Z,101506.16
2018-10-18T02:43:02.579Z,101506.67
2018-10-18T02:45:30.763Z,101504.96
2018-10-18T02:47:58.996Z,101513.89
2018-10-18T02:50:27.209Z,101512.59
2018-10-18T02:52:55.445Z,101508.13
2018-10-18T02:55:23.759Z,101504.28
2018-10-18T02:57:52.341Z,101503.81
2018-10-18T03:00:20.533Z,101505.91
2018-10-18T03:02:48.800Z,101508.51
2018-10-18T03:05:16.967Z,101509.88
2018-10-18T03:07:45.192Z,101512.91
2018-10-18T03:10:13.407Z,101514.39
2018-10-18T03:12:41.608Z,101510.33
2018-10-18T03:15:10.633Z,101513.62
2018-10-18T03:17:38.938Z,101509.22
2018-10-18T03:20:07.191Z,101507.78
2018-10-18T03:22:35.352Z,101506.16
2018-10-18T03:25:03.639Z,101507.73
2018-10-18T03:27:31.767Z,101514.06
2018-10-18T03:29:59.986Z,101509.81
2018-10-18T03:32:28.112Z,101516.30
2018-10-18T03:34:56.254Z,101519.64
2018-10-18T03:37:24.469Z,101507.92
2018-10-18T03:39:52.657Z,101506.69
2018-10-18T03:42:20.816Z,101511.45
2018-10-18T03:44:48.943Z,101510.61
2018-10-18T03:47:17.103Z,101508.56
2018-10-18T03:49:45.314Z,101511.33
2018-10-18T03:52:13.447Z,101507.73
2018-10-18T03:54:41.599Z,101511.71
2018-10-18T03:57:09.751Z,101510.33
2018-10-18T03:59:37.986Z,101510.72
2018-10-18T04:02:06.120Z,101517.45
2018-10-18T04:04:34.327Z,101520.17
2018-10-18T04:07:02.477Z,101524.14
2018-10-18T04:09:30.672Z,101519.52
2018-10-18T04:11:58.907Z,101517.58
2018-10-18T04:14:27.045Z,101519.84
2018-10-18T04:16:55.239Z,101516.65
2018-10-18T04:19:23.484Z,101522.85
2018-10-18T04:21:51.865Z,101524.98
2018-10-18T04:24:20.046Z,101524.53
2018-10-18T04:26:48.257Z,101517.70
2018-10-18T04:29:16.827Z,101519.01
2018-10-18T04:31:45.062Z,101511.50
2018-10-18T04:34:13.199Z,101517.56
2018-10-18T04:36:41.416Z,101517.36
2018-10-18T04:39:11.549Z,101518.09
2018-10-18T04:41:39.705Z,101512.23
2018-10-18T04:44:07.943Z,101510.84
2018-10-18T04:46:36.091Z,101515.30
2018-10-18T04:49:04.237Z,101515.52
2018-10-18T04:51:32.448Z,101523.18
2018-10-18T04:54:00.625Z,101522.44
2018-10-18T04:56:28.967Z,101516.83
2018-10-18T04:58:57.099Z,101523.08
2018-10-18T05:01:25.417Z,101518.22
2018-10-18T05:03:53.459Z,101522.30
2018-10-18T05:06:21.643Z,101520.72
2018-10-18T05:08:49.823Z,101524.19
2018-10-18T05:11:18.053Z,101533.47
2018-10-18T05:13:46.328Z,101535.27
2018-10-18T05:16:14.498Z,101542.88
2018-10-18T05:18:42.674Z,101547.80
2018-10-18T05:21:11.587Z,101538.94
2018-10-18T05:23:39.773Z,101545.24
2018-10-18T05:26:09.907Z,101544.78
2018-10-18T05:28:38.079Z,101542.55
2018-10-18T05:31:06.267Z,101549.97
2018-10-18T05:33:34.469Z,101556.50
2018-10-18T05:36:02.724Z,101561.86
2018-10-18T05:38:31.025Z,101569.70
2018-10-18T05:40:59.298Z,101564.09
2018-10-18T05:43:27.507Z,101565.78
2018-10-18T05:45:56.162Z,101570.12
2018-10-18T05:48:24.372Z,101568.50
2018-10-18T05:50:52.745Z,101568.23
2018-10-18T05:53:21.035Z,101572.80
2018-10-18T05:55:49.236Z,101581.34
2018-10-18T05:58:18.813Z,101583.89
2018-10-18T06:00:46.981Z,101585.33
2018-10-18T06:03:15.260Z,101585.55
2018-10-18T06:05:44.042Z,101593.48
2018-10-18T06:08:12.344Z,101592.05
2018-10-18T06:10:51.866Z,101601.27
2018-10-18T06:13:20.170Z,101604.05
2018-10-18T06:15:49.006Z,101603.82
2018-10-18T06:18:17.251Z,101608.59
2018-10-18T06:20:45.468Z,101608.41
2018-10-18T06:23:13.731Z,101608.11
2018-10-18T06:25:41.993Z,101609.13
2018-10-18T06:28:10.357Z,101608.23
2018-10-18T06:30:38.651Z,101612.41
2018-10-18T06:33:07.030Z,101612.20
2018-10-18T06:35:35.303Z,101611.98
2018-10-18T06:38:03.549Z,101613.61
2018-10-18T06:40:31.816Z,101610.80
2018-10-18T06:43:00.125Z,101611.76
2018-10-18T06:45:28.310Z,101615.58
2018-10-18T06:47:56.710Z,101619.09
2018-10-18T06:50:24.743Z,101614.49
2018-10-18T06:52:53.637Z,101607.63
2018-10-18T06:55:22.423Z,101616.39
2018-10-18T06:57:50.725Z,101616.48
2018-10-18T07:00:23.400Z,101618.00
2018-10-18T07:02:51.960Z,101613.55
2018-10-18T07:05:21.247Z,101620.18
2018-10-18T07:07:49.908Z,101612.98
2018-10-18T07:10:18.155Z,101617.30
2018-10-18T07:12:46.435Z,101619.50
2018-10-18T07:15:15.639Z,101622.69
2018-10-18T07:17:44.372Z,101618.88
2018-10-18T07:20:13.320Z,101609.73
2018-10-18T07:22:41.746Z,101614.14
2018-10-18T07:25:11.430Z,101607.55
2018-10-18T07:27:40.458Z,101610.73
2018-10-18T07:30:10.141Z,101613.59
2018-10-18T07:32:38.951Z,101610.34
2018-10-18T07:35:09.104Z,101608.41
2018-10-18T07:37:37.662Z,101612.92
2018-10-18T07:40:07.499Z,101609.13
2018-10-18T07:42:36.432Z,101611.68
2018-10-18T07:45:04.991Z,101609.00
2018-10-18T07:47:33.934Z,101612.87
2018-10-18T07:50:02.193Z,101616.98
2018-10-18T07:52:30.550Z,101615.08
2018-10-18T07:54:58.764Z,101619.94
2018-10-18T07:57:26.986Z,101628.33
2018-10-18T07:59:55.398Z,101626.92
2018-10-18T08:02:24.263Z,101628.52
2018-10-18T08:04:52.408Z,101628.34
2018-10-18T08:07:20.699Z,101634.40
2018-10-18T08:09:48.935Z,101635.31
2018-10-18T08:12:17.140Z,101631.58
2018-10-18T08:14:45.366Z,101629.41
2018-10-18T08:17:13.883Z,101628.95
2018-10-18T08:19:42.037Z,101623.37
2018-10-18T08:22:10.269Z,101626.45
2018-10-18T08:24:38.549Z,101621.64
2018-10-18T08:27:06.746Z,101622.41
2018-10-18T08:29:35.147Z,101617.83
2018-10-18T08:32:03.411Z,101621.63
2018-10-18T08:34:31.610Z,101626.22
2018-10-18T08:36:59.874Z,101625.59
2018-10-18T08:39:28.178Z,101618.05
2018-10-18T08:41:56.364Z,101623.40
2018-10-18T08:44:24.619Z,101625.16
2018-10-18T08:46:52.763Z,101622.91
2018-10-18T08:49:20.992Z,101621.88
2018-10-18T08:51:49.198Z,101624.18
2018-10-18T08:54:17.597Z,101620.18
2018-10-18T08:56:46.510Z,101617.73
2018-10-18T08:59:14.938Z,101615.61
2018-10-18T09:01:43.100Z,101620.09
2018-10-18T09:04:21.960Z,101619.05
2018-10-18T09:06:50.160Z,101618.33
2018-10-18T09:09:18.393Z,101614.30
2018-10-18T09:11:46.616Z,101617.41
2018-10-18T09:14:14.742Z,101616.16
2018-10-18T09:16:43.040Z,101615.52
2018-10-18T09:19:11.983Z,101620.28
2018-10-18T09:21:40.159Z,101620.55
2018-10-18T09:24:08.377Z,101626.32
2018-10-18T09:26:37.216Z,101622.78
2018-10-18T09:29:05.388Z,101621.98
2018-10-18T09:31:33.636Z,101620.95
2018-10-18T09:34:01.769Z,101621.33
2018-10-18T09:36:29.940Z,101614.18
2018-10-18T09:38:58.241Z,101620.42
2018-10-18T09:41:26.612Z,101614.01
2018-10-18T09:44:02.316Z,101615.32
2018-10-18T09:46:30.546Z,101615.05
2018-10-18T09:48:58.793Z,101618.98
2018-10-18T09:51:27.845Z,101619.98
2018-10-18T09:53:56.922Z,101618.10
2018-10-18T09:56:25.095Z,101613.48
2018-10-18T09:58:53.322Z,101616.52
2018-10-18T10:01:26.937Z,101611.59
2018-10-18T10:03:55.122Z,101614.83
2018-10-18T10:06:24.080Z,101620.91
2018-10-18T10:08:52.307Z,101620.27
2018-10-18T10:11:20.504Z,101618.64
2018-10-18T10:13:49.371Z,101627.93
2018-10-18T10:16:18.553Z,101626.16
2018-10-18T10:18:46.952Z,101629.70
2018-10-18T10:21:15.142Z,101624.69
2018-10-18T10:23:43.540Z,101619.70
2018-10-18T10:26:11.758Z,101622.17
2018-10-18T10:28:39.929Z,101621.40
2018-10-18T10:31:08.794Z,101633.30
2018-10-18T10:33:37.179Z,101629.84
2018-10-18T10:36:05.765Z,101630.33
2018-10-18T10:38:34.096Z,101638.79
2018-10-18T10:41:02.270Z,101634.02
2018-10-18T10:43:30.413Z,101640.20
2018-10-18T10:45:58.660Z,101634.80
2018-10-18T10:48:26.792Z,101639.51
2018-10-18T10:50:55.055Z,101639.96
2018-10-18T10:53:23.237Z,101638.55
2018-10-18T10:58:29.628Z,101646.64
2018-10-18T11:01:03.325Z,101654.39
2018-10-18T11:03:31.522Z,101649.86
2018-10-18T11:06:04.973Z,101646.64
2018-10-18T11:08:33.422Z,101643.51
2018-10-18T11:11:01.711Z,101652.02
2018-10-18T11:13:30.536Z,101652.77
2018-10-18T11:16:00.111Z,101643.19
2018-10-18T11:18:28.295Z,101644.00
2018-10-18T11:20:56.625Z,101649.81
2018-10-18T11:23:29.569Z,101650.85
2018-10-18T11:25:57.800Z,101656.01
2018-10-18T11:28:26.153Z,101656.77
2018-10-18T11:30:54.288Z,101657.41
2018-10-18T11:33:22.535Z,101657.68
2018-10-18T11:35:50.774Z,101666.91
2018-10-18T11:38:19.666Z,101674.90
2018-10-18T11:40:47.940Z,101671.19
2018-10-18T11:43:16.233Z,101668.83
2018-10-18T11:45:44.524Z,101676.53
2018-10-18T11:48:13.765Z,101673.73
2018-10-18T11:50:42.516Z,101663.11
2018-10-18T11:53:10.998Z,101658.16
2018-10-18T11:55:39.176Z,101656.22
2018-10-18T11:58:09.374Z,101647.05
2018-10-18T12:00:37.566Z,101655.84
2018-10-18T12:03:06.172Z,101647.17
2018-10-18T12:05:34.664Z,101638.73
2018-10-18T12:08:02.926Z,101640.93
2018-10-18T12:10:31.163Z,101651.21
2018-10-18T12:12:59.392Z,101642.74
2018-10-18T12:15:27.647Z,101645.17
2018-10-18T12:17:55.818Z,101634.39
2018-10-18T12:20:24.016Z,101635.99
2018-10-18T12:22:52.305Z,101642.92
2018-10-18T12:25:20.677Z,101642.69
2018-10-18T12:27:48.916Z,101649.34
2018-10-18T12:30:17.156Z,101648.56
2018-10-18T12:32:45.307Z,101656.73
2018-10-18T12:35:13.649Z,101662.09
2018-10-18T12:37:41.986Z,101651.41
2018-10-18T12:40:11.290Z,101658.27
2018-10-18T12:42:41.221Z,101656.98
2018-10-18T12:45:10.533Z,101665.27
2018-10-18T12:47:38.657Z,101664.64
2018-10-18T12:50:10.241Z,101673.92
2018-10-18T12:52:38.541Z,101665.61
2018-10-18T12:55:06.776Z,101661.84
2018-10-18T12:57:35.111Z,101663.06
2018-10-18T13:00:03.309Z,101667.04
2018-10-18T13:02:36.513Z,101664.71
2018-10-18T13:05:06.290Z,101669.08
2018-10-18T13:07:34.687Z,101671.50
2018-10-18T13:10:02.949Z,101673.02
2018-10-18T13:12:31.322Z,101675.20
2018-10-18T13:14:59.394Z,101668.03
2018-10-18T13:17:27.608Z,101672.99
2018-10-18T13:19:55.862Z,101669.64
2018-10-18T13:22:24.525Z,101672.02
2018-10-18T13:24:52.773Z,101669.64
2018-10-18T13:27:20.912Z,101678.98
2018-10-18T13:29:49.096Z,101683.27
2018-10-18T13:32:17.356Z,101679.77
2018-10-18T13:34:45.463Z,101686.01
2018-10-18T13:37:13.678Z,101688.34
2018-10-18T13:39:41.907Z,101688.34
2018-10-18T13:42:10.118Z,101687.55
2018-10-18T13:44:38.300Z,101693.58
2018-10-18T13:47:06.575Z,101691.88
2018-10-18T13:49:34.820Z,101692.38
2018-10-18T13:52:02.973Z,101694.77
2018-10-18T13:54:31.310Z,101685.10
2018-10-18T13:56:59.531Z,101686.18
2018-10-18T13:59:39.294Z,101687.03
2018-10-18T14:02:07.444Z,101689.17
2018-10-18T14:04:35.622Z,101694.03
2018-10-18T14:07:03.862Z,101698.17
2018-10-18T14:09:32.064Z,101692.05
2018-10-18T14:12:00.327Z,101692.06
2018-10-18T14:14:28.685Z,101693.09
2018-10-18T14:16:56.963Z,101693.55
2018-10-18T14:19:25.153Z,101690.59
2018-10-18T14:21:53.391Z,101697.02
2018-10-18T14:24:21.855Z,101692.72
2018-10-18T14:26:51.314Z,101693.52
2018-10-18T14:29:19.655Z,101693.83
2018-10-18T14:31:49.378Z,101690.03
2018-10-18T14:34:23.861Z,101694.92
2018-10-18T14:36:52.241Z,101694.61
2018-10-18T14:39:21.326Z,101698.41
2018-10-18T14:41:49.636Z,101698.69
2018-10-18T14:44:18.019Z,101691.98
2018-10-18T14:46:46.731Z,101696.64
2018-10-18T14:49:15.072Z,101695.13
2018-10-18T14:51:43.326Z,101692.52
2018-10-18T14:54:11.602Z,101696.49
2018-10-18T14:56:39.816Z,101694.46
2018-10-18T14:59:08.282Z,101695.06
2018-10-18T15:01:36.573Z,101694.48
2018-10-18T15:04:05.351Z,101697.52
2018-10-18T15:06:33.533Z,101697.67
2018-10-18T15:09:01.823Z,101703.06
2018-10-18T15:11:30.002Z,101705.16
2018-10-18T15:13:58.265Z,101697.39
2018-10-18T15:16:26.495Z,101705.33
2018-10-18T15:18:54.794Z,101705.47
2018-10-18T15:21:23.050Z,101702.26
2018-10-18T15:23:52.238Z,101701.52
2018-10-18T15:26:20.464Z,101706.18
2018-10-18T15:28:48.996Z,101706.39
2018-10-18T15:31:19.630Z,101705.90
2018-10-18T15:33:47.836Z,101707.55
2018-10-18T15:36:16.089Z,101710.31
2018-10-18T15:38:44.502Z,101710.02
2018-10-18T15:41:12.643Z,101702.97
2018-10-18T15:43:40.839Z,101708.23
2018-10-18T15:46:09.715Z,101710.91
2018-10-18T15:48:38.859Z,101716.72
2018-10-18T15:51:07.098Z,101724.13
2018-10-18T15:53:35.439Z,101720.95
2018-10-18T15:56:03.863Z,101716.86
2018-10-18T15:58:32.178Z,101717.17
2018-10-18T16:01:00.411Z,101715.63
2018-10-18T16:03:29.231Z,101720.08
2018-10-18T16:05:57.478Z,101719.64
2018-10-18T16:08:25.689Z,101724.87
2018-10-18T16:10:54.530Z,101727.50
2018-10-18T16:13:22.803Z,101732.65
2018-10-18T16:15:51.537Z,101730.48
2018-10-18T16:18:19.794Z,101727.12
2018-10-18T16:20:48.059Z,101729.06
2018-10-18T16:23:16.450Z,101734.90
2018-10-18T16:25:44.764Z,101730.31
2018-10-18T16:28:13.462Z,101739.85
2018-10-18T16:30:41.751Z,101736.35
2018-10-18T16:33:10.108Z,101741.02
2018-10-18T16:35:38.320Z,101741.15
2018-10-18T16:38:06.778Z,101748.87
2018-10-18T16:40:34.937Z,101754.33
2018-10-18T16:43:03.127Z,101758.09
2018-10-18T16:45:31.622Z,101757.31
2018-10-18T16:47:59.856Z,101764.12
2018-10-18T16:50:28.219Z,101763.77
2018-10-18T16:52:56.388Z,101764.98
2018-10-18T16:55:24.679Z,101775.81
2018-10-18T16:57:52.956Z,101771.67
2018-10-18T17:00:21.368Z,101776.18
2018-10-18T17:02:50.255Z,101780.05
2018-10-18T17:05:18.525Z,101785.70
2018-10-18T17:07:46.775Z,101788.50
2018-10-18T17:10:14.968Z,101788.74
2018-10-18T17:12:43.215Z,101784.79
2018-10-18T17:15:11.493Z,101786.94
2018-10-18T17:17:39.747Z,101787.23
2018-10-18T17:20:08.332Z,101790.36
2018-10-18T17:22:36.728Z,101788.65
2018-10-18T17:25:05.089Z,101797.08
2018-10-18T17:27:34.025Z,101801.94
2018-10-18T17:30:02.122Z,101794.15
2018-10-18T17:32:30.917Z,101799.81
2018-10-18T17:34:59.319Z,101795.50
2018-10-18T17:37:27.537Z,101800.47
2018-10-18T17:39:55.780Z,101801.45
2018-10-18T17:42:23.945Z,101806.81
2018-10-18T17:44:52.353Z,101812.86
2018-10-18T17:47:20.648Z,101816.20
2018-10-18T17:49:49.205Z,101814.43
2018-10-18T17:52:17.430Z,101823.22
2018-10-18T17:54:45.691Z,101818.91
2018-10-18T17:57:15.564Z,101817.23
2018-10-18T17:59:43.876Z,101815.70
2018-10-18T18:02:12.198Z,101817.66
2018-10-18T18:04:40.363Z,101817.06
2018-10-18T18:07:08.644Z,101824.58
2018-10-18T18:09:36.973Z,101832.38
2018-10-18T18:12:05.481Z,101832.16
2018-10-18T18:14:33.742Z,101837.17
2018-10-18T18:17:02.031Z,101841.97
2018-10-18T18:19:30.290Z,101841.45
2018-10-18T18:21:58.777Z,101839.89
2018-10-18T18:24:27.022Z,101845.59
2018-10-18T18:26:55.560Z,101839.89
2018-10-18T18:29:23.840Z,101849.41
2018-10-18T18:31:52.024Z,101843.57
2018-10-18T18:34:24.398Z,101854.88
2018-10-18T18:36:52.791Z,101858.73
2018-10-18T18:39:21.059Z,101859.66
2018-10-18T18:41:49.389Z,101863.58
2018-10-18T18:44:17.829Z,101868.13
2018-10-18T18:46:46.226Z,101874.91
2018-10-18T18:49:14.509Z,101882.52
2018-10-18T18:51:42.832Z,101880.18
2018-10-18T18:54:11.402Z,101881.48
2018-10-18T18:56:39.634Z,101885.76
2018-10-18T18:59:07.844Z,101882.33
2018-10-18T19:01:36.054Z,101883.19
2018-10-18T19:04:04.379Z,101889.64
2018-10-18T19:06:32.948Z,101892.79
2018-10-18T19:09:01.478Z,101890.59
2018-10-18T19:11:29.719Z,101890.07
2018-10-18T19:13:57.994Z,101892.19
2018-10-18T19:16:27.224Z,101897.91
2018-10-18T19:18:55.473Z,101900.70
2018-10-18T19:21:23.736Z,101899.43
2018-10-18T19:23:51.962Z,101909.42
2018-10-18T19:26:20.308Z,101907.06
2018-10-18T19:28:48.645Z,101919.35
2018-10-18T19:31:16.922Z,101909.00
2018-10-18T19:33:46.231Z,101910.72
2018-10-18T19:36:14.473Z,101904.84
2018-10-18T19:38:42.734Z,101918.11
2018-10-18T19:41:11.155Z,101921.87
2018-10-18T19:43:39.552Z,101913.08
2018-10-18T19:46:08.909Z,101915.67
2018-10-18T19:48:37.132Z,101919.27
2018-10-18T19:51:05.584Z,101920.34
2018-10-18T19:53:33.858Z,101930.81
2018-10-18T19:56:02.630Z,101920.70
2018-10-18T19:58:30.943Z,101918.63
2018-10-18T20:00:59.206Z,101919.27
2018-10-18T20:03:27.832Z,101915.06
2018-10-18T20:05:56.286Z,101931.22
2018-10-18T20:08:24.606Z,101923.02
2018-10-18T20:10:52.872Z,101928.14
2018-10-18T20:13:21.155Z,101933.81
2018-10-18T20:15:49.394Z,101940.42
2018-10-18T20:18:17.779Z,101946.34
2018-10-18T20:20:46.021Z,101942.01
2018-10-18T20:23:14.228Z,101943.27
2018-10-18T20:25:42.665Z,101949.49
2018-10-18T20:28:11.160Z,101948.00
2018-10-18T20:30:39.575Z,101948.58
2018-10-18T20:33:07.888Z,101950.19
2018-10-18T20:35:36.299Z,101938.78
2018-10-18T20:38:04.908Z,101933.44
2018-10-18T20:40:33.196Z,101942.28
2018-10-18T20:43:01.397Z,101941.51
2018-10-18T20:45:35.180Z,101941.47
2018-10-18T20:48:03.700Z,101943.47
2018-10-18T20:50:31.842Z,101945.19
2018-10-18T20:53:00.307Z,101948.38
2018-10-18T20:55:28.723Z,101944.16
2018-10-18T20:57:56.963Z,101962.09
2018-10-18T21:00:25.349Z,101951.98
2018-10-18T21:02:53.777Z,101953.91
2018-10-18T21:05:22.009Z,101957.83
2018-10-18T21:07:50.303Z,101953.22
2018-10-18T21:10:18.529Z,101955.56
2018-10-18T21:12:46.743Z,101956.25
2018-10-18T21:15:18.185Z,101962.52
2018-10-18T21:17:46.380Z,101960.44
2018-10-18T21:20:14.560Z,101965.74
2018-10-18T21:22:42.729Z,101966.89
2018-10-18T21:25:10.915Z,101970.05
2018-10-18T21:27:39.100Z,101969.46
2018-10-18T21:30:07.860Z,101970.69
2018-10-18T21:32:36.119Z,101973.45
2018-10-18T21:35:04.336Z,101977.76
2018-10-18T21:37:32.524Z,101983.78
2018-10-18T21:40:00.706Z,101974.42
2018-10-18T21:42:28.875Z,101968.69
2018-10-18T21:44:57.187Z,101974.69
2018-10-18T21:47:25.406Z,101973.84
2018-10-18T21:49:53.602Z,101978.60
2018-10-18T21:52:21.810Z,101974.41
2018-10-18T21:54:50.017Z,101983.04
2018-10-18T21:57:18.266Z,101978.32
2018-10-18T21:59:47.417Z,101977.89
2018-10-18T22:02:15.567Z,101983.39
2018-10-18T22:04:43.765Z,101986.69
2018-10-18T22:07:12.013Z,101981.25
2018-10-18T22:09:40.317Z,101985.12
2018-10-18T22:12:10.077Z,101987.66
2018-10-18T22:14:38.256Z,101993.88
2018-10-18T22:17:06.601Z,101985.46
2018-10-18T22:19:34.728Z,101989.56
2018-10-18T22:22:02.894Z,101992.53
2018-10-18T22:24:31.052Z,101992.80
2018-10-18T22:26:59.268Z,101990.45
2018-10-18T22:29:27.493Z,101991.34
2018-10-18T22:31:55.683Z,101989.30
2018-10-18T22:34:23.924Z,101989.30
2018-10-18T22:36:52.124Z,101988.33
2018-10-18T22:39:20.271Z,101988.19
2018-10-18T22:41:48.421Z,101993.28
2018-10-18T22:44:16.623Z,101993.34
2018-10-18T22:46:44.791Z,101979.27
2018-10-18T22:49:12.950Z,101986.48
2018-10-18T22:51:41.205Z,101986.48
2018-10-18T22:54:09.385Z,101987.94
2018-10-18T22:56:37.545Z,101988.70
2018-10-18T22:59:05.759Z,101990.14
2018-10-18T23:01:33.884Z,101992.75
2018-10-18T23:04:02.021Z,101996.16
2018-10-18T23:06:30.210Z,101996.37
2018-10-18T23:08:58.360Z,101995.49
2018-10-18T23:11:26.537Z,101996.30
2018-10-18T23:13:54.731Z,101996.58
2018-10-18T23:16:22.913Z,101996.88
2018-10-18T23:18:51.098Z,101996.67
2018-10-18T23:21:19.337Z,102003.50
2018-10-18T23:23:47.472Z,102009.84
2018-10-18T23:26:15.630Z,102009.13
2018-10-18T23:28:43.867Z,102012.93
2018-10-18T23:31:12.097Z,102006.77
2018-10-18T23:33:40.273Z,102008.81
2018-10-18T23:36:08.434Z,102011.08
2018-10-18T23:38:36.653Z,102007.16
2018-10-18T23:41:05.335Z,102009.64
2018-10-18T23:43:33.509Z,101999.89
2018-10-18T23:46:01.685Z,102005.73
2018-10-18T23:48:29.851Z,102011.83
2018-10-18T23:50:58.072Z,102000.97
2018-10-18T23:53:26.236Z,102007.79
2018-10-18T23:55:54.425Z,102007.51
2018-10-18T23:58:22.581Z,102009.01
